Time,TemperatureF,DewpointF,PressureIn,WindDirection,WindDirectionDegrees,WindSpeedMPH,WindSpeedGustMPH,Humidity,HourlyPrecipIn,Conditions,Clouds,dailyrainin,SolarRadiationWatts/m^2,SoftwareType,DateUTC
2013-07-13 00:01:00,69.6,55.1,30.18,NNW,338,0.0,0.0,60,0.00,CLR,OVC,0.00,0.0,WeatherDisplay:10.37,2013-07-13 04:01:00,
2013-07-13 00:02:00,69.4,54.9,30.18,NNW,338,0.0,0.0,60,0.00,CLR,OVC,0.00,0.0,WeatherDisplay:10.37,2013-07-13 04:02:00,
2013-07-13 00:03:00,69.4,54.9,30.18,NNW,338,0.0,1.2,60,0.00,CLR,OVC,0.00,0.0,WeatherDisplay:10.37,2013-07-13 04:03:00,
2013-07-13 00:08:00,69.1,55.1,30.18,NNE,22,0.0,0.0,61,0.00,CLR,OVC,0.00,0.0,WeatherDisplay:10.37,2013-07-13 04:08:00,
2013-07-13 00:13:00,68.9,55.3,30.18,NNE,22,0.0,0.0,62,0.00,CLR,OVC,0.00,0.0,WeatherDisplay:10.37,2013-07-13 04:13:00,
2013-07-13 00:18:00,68.9,55.3,30.18,NNE,22,0.0,0.0,62,0.00,CLR,OVC,0.00,0.0,WeatherDisplay:10.37,2013-07-13 04:18:00,
2013-07-13 00:23:00,68.7,55.2,30.18,North,0,0.0,0.0,62,0.00,CLR,OVC,0.00,0.0,WeatherDisplay:10.37,2013-07-13 04:23:00,
2013-07-13 00:28:00,68.5,55.4,30.18,NNE,22,0.0,0.0,63,0.00,CLR,OVC,0.00,0.0,WeatherDisplay:10.37,2013-07-13 04:28:00,
2013-07-13 00:33:00,68.4,55.3,30.18,NNE,22,0.0,0.0,63,0.00,CLR,OVC,0.00,0.0,WeatherDisplay:10.37,2013-07-13 04:33:00,
2013-07-13 00:38:00,68.4,55.3,30.18,East,90,0.0,0.0,63,0.00,CLR,OVC,0.00,0.0,WeatherDisplay:10.37,2013-07-13 04:38:00,
2013-07-13 00:43:00,68.4,55.3,30.18,East,90,0.0,0.0,63,0.00,CLR,OVC,0.00,0.0,WeatherDisplay:10.37,2013-07-13 04:43:00,
2013-07-13 00:48:00,68.4,55.7,30.18,ENE,68,0.0,0.0,64,0.00,CLR,OVC,0.00,0.0,WeatherDisplay:10.37,2013-07-13 04:48:00,
2013-07-13 00:53:00,68.2,55.5,30.18,ENE,68,0.0,0.0,64,0.00,CLR,OVC,0.00,0.0,WeatherDisplay:10.37,2013-07-13 04:53:00,
2013-07-13 00:58:00,68.2,55.5,30.18,ENE,68,0.0,1.2,64,0.00,CLR,OVC,0.00,0.0,WeatherDisplay:10.37,2013-07-13 04:58:00,
2013-07-13 01:03:00,68.4,55.7,30.18,ENE,68,0.0,0.0,64,0.00,CLR,OVC,0.00,0.0,WeatherDisplay:10.37,2013-07-13 05:03:00,
2013-07-13 01:08:00,68.2,55.5,30.18,ENE,68,0.0,0.0,64,0.00,CLR,OVC,0.00,0.0,WeatherDisplay:10.37,2013-07-13 05:08:00,
2013-07-13 01:13:00,68.2,56.0,30.18,ENE,68,0.0,0.0,65,0.00,CLR,OVC,0.00,0.0,WeatherDisplay:10.37,2013-07-13 05:13:00,
2013-07-13 01:18:00,68.0,55.8,30.18,ENE,68,0.0,0.0,65,0.00,CLR,OVC,0.00,0.0,WeatherDisplay:10.37,2013-07-13 05:18:00,
2013-07-13 01:23:00,68.0,55.8,30.18,ENE,68,0.0,0.0,65,0.00,CLR,OVC,0.00,0.0,WeatherDisplay:10.37,2013-07-13 05:23:00,
2013-07-13 01:28:00,67.8,55.6,30.18,NE,45,0.0,0.0,65,0.00,CLR,OVC,0.00,0.0,WeatherDisplay:10.37,2013-07-13 05:28:00,
2013-07-13 01:33:00,67.6,55.5,30.21,NE,45,0.0,1.2,65,0.00,CLR,OVC,0.00,0.0,WeatherDisplay:10.37,2013-07-13 05:33:00,
2013-07-13 01:38:00,67.8,56.0,30.21,NE,45,3.6,3.6,66,0.00,CLR,OVC,0.00,0.0,WeatherDisplay:10.37,2013-07-13 05:38:00,
2013-07-13 01:43:00,67.8,56.0,30.21,ENE,68,1.2,2.3,66,0.00,CLR,OVC,0.00,0.0,WeatherDisplay:10.37,2013-07-13 05:43:00,
2013-07-13 01:48:00,67.8,55.6,30.18,ENE,68,2.4,3.5,65,0.00,CLR,OVC,0.00,0.0,WeatherDisplay:10.37,2013-07-13 05:48:00,
2013-07-13 01:53:00,67.8,55.6,30.18,ENE,68,2.6,3.5,65,0.00,CLR,OVC,0.00,0.0,WeatherDisplay:10.37,2013-07-13 05:53:00,
2013-07-13 01:58:00,67.8,55.6,30.18,NE,45,3.1,5.8,65,0.00,CLR,OVC,0.00,0.0,WeatherDisplay:10.37,2013-07-13 05:58:00,
2013-07-13 02:03:00,67.8,55.6,30.18,ENE,68,2.6,4.6,65,0.00,CLR,OVC,0.00,0.0,WeatherDisplay:10.37,2013-07-13 06:03:00,
2013-07-13 02:08:00,67.8,55.6,30.18,ENE,68,2.0,3.5,65,0.00,CLR,OVC,0.00,0.0,WeatherDisplay:10.37,2013-07-13 06:08:00,
2013-07-13 02:13:00,67.6,55.0,30.18,ENE,68,2.9,4.6,64,0.00,CLR,OVC,0.00,0.0,WeatherDisplay:10.37,2013-07-13 06:13:00,
2013-07-13 02:18:00,67.6,55.0,30.15,ENE,68,2.4,4.6,64,0.00,CLR,OVC,0.00,0.0,WeatherDisplay:10.37,2013-07-13 06:18:00,
2013-07-13 02:23:00,67.6,55.0,30.15,ENE,68,3.1,3.5,64,0.00,CLR,OVC,0.00,0.0,WeatherDisplay:10.37,2013-07-13 06:23:00,
2013-07-13 02:28:00,67.6,55.0,30.15,ENE,68,3.3,5.4,64,0.00,CLR,OVC,0.00,0.0,WeatherDisplay:10.37,2013-07-13 06:28:00,
2013-07-13 02:33:00,67.5,54.9,30.18,NE,45,3.1,6.2,64,0.00,CLR,OVC,0.00,0.0,WeatherDisplay:10.37,2013-07-13 06:33:00,
2013-07-13 02:38:00,67.5,54.9,30.18,ENE,68,3.6,4.6,64,0.00,CLR,OVC,0.00,0.0,WeatherDisplay:10.37,2013-07-13 06:38:00,
2013-07-13 02:43:00,67.3,54.3,30.18,ENE,68,2.6,4.6,63,0.00,CLR,OVC,0.00,0.0,WeatherDisplay:10.37,2013-07-13 06:43:00,
2013-07-13 02:48:00,67.3,54.3,30.21,NE,45,1.6,2.3,63,0.00,CLR,OVC,0.00,0.0,WeatherDisplay:10.37,2013-07-13 06:48:00,
2013-07-13 02:53:00,67.1,54.1,30.21,ENE,68,1.6,2.3,63,0.00,CLR,OVC,0.00,0.0,WeatherDisplay:10.37,2013-07-13 06:53:00,
2013-07-13 02:58:00,67.1,54.1,30.21,ENE,68,0.0,2.3,63,0.00,CLR,OVC,0.00,0.0,WeatherDisplay:10.37,2013-07-13 06:58:00,
2013-07-13 03:03:00,67.1,54.1,30.18,ENE,68,1.2,2.3,63,0.00,CLR,OVC,0.00,0.0,WeatherDisplay:10.37,2013-07-13 07:03:00,
2013-07-13 03:08:00,66.9,53.9,30.18,ENE,68,2.9,3.1,63,0.00,CLR,OVC,0.00,0.0,WeatherDisplay:10.37,2013-07-13 07:08:00,
2013-07-13 03:13:00,66.9,53.9,30.18,ENE,68,1.4,2.3,63,0.00,CLR,OVC,0.00,0.0,WeatherDisplay:10.37,2013-07-13 07:13:00,
2013-07-13 03:18:00,66.9,53.9,30.18,NE,45,2.2,2.9,63,0.00,CLR,OVC,0.00,0.0,WeatherDisplay:10.37,2013-07-13 07:18:00,
2013-07-13 03:23:00,66.7,53.7,30.18,NE,45,3.3,5.8,63,0.00,CLR,OVC,0.00,0.0,WeatherDisplay:10.37,2013-07-13 07:23:00,
2013-07-13 03:28:00,66.6,53.6,30.18,NE,45,2.2,3.5,63,0.00,CLR,OVC,0.00,0.0,WeatherDisplay:10.37,2013-07-13 07:28:00,
2013-07-13 03:33:00,66.6,53.6,30.18,ENE,68,1.2,2.3,63,0.00,CLR,OVC,0.00,0.0,WeatherDisplay:10.37,2013-07-13 07:33:00,
2013-07-13 03:38:00,66.4,53.4,30.18,NE,45,1.2,2.3,63,0.00,CLR,OVC,0.00,0.0,WeatherDisplay:10.37,2013-07-13 07:38:00,
2013-07-13 03:43:00,66.4,53.8,30.18,NNE,22,1.2,2.3,64,0.00,CLR,OVC,0.00,0.0,WeatherDisplay:10.37,2013-07-13 07:43:00,
2013-07-13 03:48:00,66.2,53.7,30.18,NNE,22,1.2,1.2,64,0.00,CLR,OVC,0.00,0.0,WeatherDisplay:10.37,2013-07-13 07:48:00,
2013-07-13 03:53:00,66.2,53.7,30.18,NNE,22,2.0,3.5,64,0.00,CLR,OVC,0.00,0.0,WeatherDisplay:10.37,2013-07-13 07:53:00,
2013-07-13 03:58:00,66.0,53.5,30.18,NNE,22,2.2,3.5,64,0.00,CLR,OVC,0.00,0.0,WeatherDisplay:10.37,2013-07-13 07:58:00,
2013-07-13 04:03:00,66.0,53.5,30.18,NNE,22,2.9,4.6,64,0.00,CLR,OVC,0.00,0.0,WeatherDisplay:10.37,2013-07-13 08:03:00,
2013-07-13 04:08:00,65.8,53.3,30.18,NE,45,2.9,3.5,64,0.00,CLR,OVC,0.00,0.0,WeatherDisplay:10.37,2013-07-13 08:08:00,
2013-07-13 04:13:00,65.8,53.7,30.18,NNE,22,1.6,1.6,65,0.00,CLR,OVC,0.00,0.0,WeatherDisplay:10.37,2013-07-13 08:13:00,
2013-07-13 04:18:00,65.7,53.6,30.18,ENE,68,1.2,3.5,65,0.00,CLR,OVC,0.00,0.0,WeatherDisplay:10.37,2013-07-13 08:18:00,
2013-07-13 04:23:00,65.7,53.6,30.18,NE,45,2.4,3.1,65,0.00,CLR,OVC,0.00,0.0,WeatherDisplay:10.37,2013-07-13 08:23:00,
2013-07-13 04:28:00,65.5,53.4,30.18,ENE,68,2.9,4.6,65,0.00,CLR,OVC,0.00,0.0,WeatherDisplay:10.37,2013-07-13 08:28:00,
2013-07-13 04:33:00,65.5,53.4,30.18,NE,45,1.6,3.5,65,0.00,CLR,OVC,0.00,0.0,WeatherDisplay:10.37,2013-07-13 08:33:00,
2013-07-13 04:38:00,65.5,53.4,30.18,NE,45,2.4,3.6,65,0.00,CLR,OVC,0.00,0.0,WeatherDisplay:10.37,2013-07-13 08:38:00,
2013-07-13 04:43:00,65.5,53.4,30.18,NE,45,2.2,2.3,65,0.00,CLR,OVC,0.00,0.0,WeatherDisplay:10.37,2013-07-13 08:43:00,
2013-07-13 04:48:00,65.3,53.2,30.15,NNE,22,2.2,3.5,65,0.00,CLR,OVC,0.00,0.0,WeatherDisplay:10.37,2013-07-13 08:48:00,
2013-07-13 04:53:00,65.1,53.1,30.15,NE,45,2.4,3.5,65,0.00,CLR,OVC,0.00,0.0,WeatherDisplay:10.37,2013-07-13 08:53:00,
2013-07-13 04:58:00,65.1,53.5,30.15,NE,45,2.9,3.5,66,0.00,CLR,OVC,0.00,0.0,WeatherDisplay:10.37,2013-07-13 08:58:00,
2013-07-13 05:03:00,65.1,53.5,30.18,NE,45,2.6,4.6,66,0.00,CLR,OVC,0.00,0.0,WeatherDisplay:10.37,2013-07-13 09:03:00,
2013-07-13 05:08:00,64.9,53.3,30.18,NE,45,2.4,3.5,66,0.00,CLR,OVC,0.00,0.0,WeatherDisplay:10.37,2013-07-13 09:08:00,
2013-07-13 05:13:00,64.9,53.3,30.18,NE,45,2.4,4.6,66,0.00,CLR,OVC,0.00,0.0,WeatherDisplay:10.37,2013-07-13 09:13:00,
2013-07-13 05:18:00,64.8,53.1,30.18,ENE,68,3.3,4.6,66,0.00,CLR,OVC,0.00,0.0,WeatherDisplay:10.37,2013-07-13 09:18:00,
2013-07-13 05:23:00,64.8,53.1,30.18,NNE,22,2.2,2.9,66,0.00,CLR,OVC,0.00,0.0,WeatherDisplay:10.37,2013-07-13 09:23:00,
2013-07-13 05:28:00,64.8,53.1,30.18,ENE,68,2.2,3.5,66,0.00,CLR,OVC,0.00,0.0,WeatherDisplay:10.37,2013-07-13 09:28:00,
2013-07-13 05:33:00,64.6,53.4,30.18,NNE,22,2.2,3.5,67,0.00,CLR,OVC,0.00,0.0,WeatherDisplay:10.37,2013-07-13 09:33:00,
2013-07-13 05:38:00,64.6,53.4,30.18,NNE,22,1.4,2.6,67,0.00,CLR,OVC,0.00,0.0,WeatherDisplay:10.37,2013-07-13 09:38:00,
2013-07-13 05:43:00,64.6,53.4,30.18,NNE,22,2.9,3.5,67,0.00,CLR,OVC,0.00,0.0,WeatherDisplay:10.37,2013-07-13 09:43:00,
2013-07-13 05:48:00,64.2,53.4,30.18,NNE,22,3.8,4.6,68,0.00,CLR,OVC,0.00,0.0,WeatherDisplay:10.37,2013-07-13 09:48:00,
2013-07-13 05:53:00,64.2,53.4,30.18,ENE,68,2.4,2.4,68,0.00,CLR,OVC,0.00,0.0,WeatherDisplay:10.37,2013-07-13 09:53:00,
2013-07-13 05:58:00,64.0,53.3,30.18,ENE,68,2.2,2.6,68,0.00,CLR,OVC,0.00,0.0,WeatherDisplay:10.37,2013-07-13 09:58:00,
2013-07-13 06:03:00,64.0,53.7,30.21,ENE,68,2.0,4.7,69,0.00,CLR,OVC,0.00,0.0,WeatherDisplay:10.37,2013-07-13 10:03:00,
2013-07-13 06:08:00,64.2,53.8,30.21,NE,45,1.2,2.3,69,0.00,CLR,OVC,0.00,0.0,WeatherDisplay:10.37,2013-07-13 10:08:00,
2013-07-13 06:13:00,64.2,53.8,30.21,ENE,68,2.4,3.5,69,0.00,CLR,OVC,0.00,0.0,WeatherDisplay:10.37,2013-07-13 10:13:00,
2013-07-13 06:18:00,64.2,53.8,30.21,NE,45,3.8,4.6,69,0.00,CLR,OVC,0.00,0.0,WeatherDisplay:10.37,2013-07-13 10:18:00,
2013-07-13 06:23:00,64.4,54.0,30.21,NE,45,2.0,4.6,69,0.00,CLR,OVC,0.00,0.0,WeatherDisplay:10.37,2013-07-13 10:23:00,
2013-07-13 06:28:00,64.6,54.6,30.21,NNE,22,2.4,3.5,70,0.00,CLR,OVC,0.00,0.0,WeatherDisplay:10.37,2013-07-13 10:28:00,
2013-07-13 06:33:00,65.3,55.3,30.21,NE,45,1.6,2.4,70,0.00,CLR,OVC,0.00,0.0,WeatherDisplay:10.37,2013-07-13 10:33:00,
2013-07-13 06:38:00,66.0,56.0,30.21,NE,45,1.6,2.3,70,0.00,CLR,OVC,0.00,0.0,WeatherDisplay:10.37,2013-07-13 10:38:00,
2013-07-13 06:43:00,66.7,56.2,30.21,NE,45,3.3,4.6,69,0.00,CLR,OVC,0.00,0.0,WeatherDisplay:10.37,2013-07-13 10:43:00,
2013-07-13 06:48:00,67.5,56.5,30.21,ENE,68,3.6,5.8,68,0.00,CLR,OVC,0.00,0.0,WeatherDisplay:10.37,2013-07-13 10:48:00,
2013-07-13 06:53:00,68.2,56.8,30.21,NE,45,2.9,5.8,67,0.00,CLR,OVC,0.00,0.0,WeatherDisplay:10.37,2013-07-13 10:53:00,
2013-07-13 06:58:00,68.9,57.1,30.21,NE,45,3.1,4.6,66,0.00,CLR,OVC,0.00,0.0,WeatherDisplay:10.37,2013-07-13 10:58:00,
2013-07-13 07:03:00,70.0,57.7,30.21,NE,45,0.9,2.3,65,0.00,CLR,OVC,0.00,0.0,WeatherDisplay:10.37,2013-07-13 11:03:00,
2013-07-13 07:08:00,70.7,57.9,30.21,ENE,68,2.9,3.5,64,0.00,CLR,OVC,0.00,0.0,WeatherDisplay:10.37,2013-07-13 11:08:00,
2013-07-13 07:13:00,71.4,58.2,30.21,ENE,68,4.7,5.8,63,0.00,CLR,OVC,0.00,0.0,WeatherDisplay:10.37,2013-07-13 11:13:00,
2013-07-13 07:18:00,72.1,58.4,30.21,ENE,68,4.7,4.7,62,0.00,CLR,OVC,0.00,0.0,WeatherDisplay:10.37,2013-07-13 11:18:00,
2013-07-13 07:23:00,72.3,58.1,30.21,ENE,68,3.8,6.0,61,0.00,CLR,OVC,0.00,0.0,WeatherDisplay:10.37,2013-07-13 11:23:00,
2013-07-13 07:28:00,73.2,58.5,30.21,NNE,22,4.9,5.8,60,0.00,CLR,OVC,0.00,0.0,WeatherDisplay:10.37,2013-07-13 11:28:00,
2013-07-13 07:33:00,73.8,58.1,30.21,NE,45,4.9,5.8,58,0.00,CLR,OVC,0.00,0.0,WeatherDisplay:10.37,2013-07-13 11:33:00,
2013-07-13 07:38:00,74.5,58.7,30.21,NE,45,4.5,4.6,58,0.00,CLR,OVC,0.00,100.0,WeatherDisplay:10.37,2013-07-13 11:38:00,
2013-07-13 07:43:00,75.0,58.8,30.21,NE,45,3.3,4.9,57,0.00,CLR,OVC,0.00,100.0,WeatherDisplay:10.37,2013-07-13 11:43:00,
2013-07-13 07:48:00,75.4,58.6,30.21,NNE,22,4.9,6.4,56,0.00,CLR,OVC,0.00,100.0,WeatherDisplay:10.37,2013-07-13 11:48:00,
2013-07-13 07:53:00,75.6,58.3,30.21,NE,45,4.9,5.8,55,0.00,CLR,OVC,0.00,100.0,WeatherDisplay:10.37,2013-07-13 11:53:00,
2013-07-13 07:58:00,75.6,58.3,30.21,NE,45,5.9,8.1,55,0.00,CLR,OVC,0.00,100.0,WeatherDisplay:10.37,2013-07-13 11:58:00,
2013-07-13 08:03:00,75.7,58.4,30.21,ENE,68,4.7,6.9,55,0.00,CLR,OVC,0.00,100.0,WeatherDisplay:10.37,2013-07-13 12:03:00,
2013-07-13 08:08:00,75.9,58.6,30.21,NE,45,6.7,8.1,55,0.00,CLR,OVC,0.00,100.0,WeatherDisplay:10.37,2013-07-13 12:08:00,
2013-07-13 08:13:00,76.5,59.1,30.21,ENE,68,4.7,8.1,55,0.00,CLR,OVC,0.00,100.0,WeatherDisplay:10.37,2013-07-13 12:13:00,
2013-07-13 08:18:00,76.8,59.4,30.21,ENE,68,4.7,8.1,55,0.00,CLR,OVC,0.00,100.0,WeatherDisplay:10.37,2013-07-13 12:18:00,
2013-07-13 08:23:00,77.2,59.2,30.21,ENE,68,3.8,4.6,54,0.00,CLR,OVC,0.00,100.0,WeatherDisplay:10.37,2013-07-13 12:23:00,
2013-07-13 08:28:00,77.5,59.6,30.21,ENE,68,2.6,3.5,54,0.00,CLR,OVC,0.00,200.0,WeatherDisplay:10.37,2013-07-13 12:28:00,
2013-07-13 08:33:00,77.7,59.7,30.21,ENE,68,4.9,5.8,54,0.00,CLR,OVC,0.00,200.0,WeatherDisplay:10.37,2013-07-13 12:33:00,
2013-07-13 08:38:00,77.5,59.1,30.21,ENE,68,6.0,9.2,53,0.00,CLR,OVC,0.00,200.0,WeatherDisplay:10.37,2013-07-13 12:38:00,
2013-07-13 08:43:00,77.7,59.2,30.21,ENE,68,5.9,8.1,53,0.00,CLR,OVC,0.00,200.0,WeatherDisplay:10.37,2013-07-13 12:43:00,
2013-07-13 08:48:00,77.7,59.2,30.21,NE,45,5.6,6.9,53,0.00,CLR,OVC,0.00,200.0,WeatherDisplay:10.37,2013-07-13 12:48:00,
2013-07-13 08:53:00,77.5,59.1,30.21,ESE,112,5.6,8.1,53,0.00,CLR,OVC,0.00,200.0,WeatherDisplay:10.37,2013-07-13 12:53:00,
2013-07-13 08:58:00,77.7,59.2,30.21,ESE,112,5.6,6.9,53,0.00,CLR,OVC,0.00,200.0,WeatherDisplay:10.37,2013-07-13 12:58:00,
2013-07-13 09:03:00,77.9,58.9,30.21,NE,45,5.9,9.2,52,0.00,CLR,OVC,0.00,300.0,WeatherDisplay:10.37,2013-07-13 13:03:00,
2013-07-13 09:08:00,78.1,59.6,30.21,NE,45,4.3,6.9,53,0.00,CLR,OVC,0.00,300.0,WeatherDisplay:10.37,2013-07-13 13:08:00,
2013-07-13 09:13:00,78.1,59.6,30.21,East,90,2.2,5.4,53,0.00,CLR,OVC,0.00,300.0,WeatherDisplay:10.37,2013-07-13 13:13:00,
2013-07-13 09:18:00,78.6,59.5,30.21,ENE,68,5.6,8.1,52,0.00,CLR,OVC,0.00,400.0,WeatherDisplay:10.37,2013-07-13 13:18:00,
2013-07-13 09:24:00,79.0,59.9,30.21,NE,45,2.6,3.5,52,0.00,CLR,OVC,0.00,400.0,WeatherDisplay:10.37,2013-07-13 13:24:00,
2013-07-13 09:29:00,79.3,59.6,30.21,ENE,68,4.3,6.4,51,0.00,CLR,OVC,0.00,500.0,WeatherDisplay:10.37,2013-07-13 13:29:00,
2013-07-13 09:34:00,79.5,59.8,30.21,ENE,68,3.6,4.6,51,0.00,CLR,OVC,0.00,500.0,WeatherDisplay:10.37,2013-07-13 13:34:00,
2013-07-13 09:39:00,79.5,59.8,30.21,ENE,68,6.2,8.1,51,0.00,CLR,OVC,0.00,600.0,WeatherDisplay:10.37,2013-07-13 13:39:00,
2013-07-13 09:44:00,79.5,59.8,30.21,NE,45,3.3,5.6,51,0.00,CLR,OVC,0.00,600.0,WeatherDisplay:10.37,2013-07-13 13:44:00,
2013-07-13 09:49:00,79.5,59.8,30.21,NNE,22,4.0,6.9,51,0.00,CLR,OVC,0.00,700.0,WeatherDisplay:10.37,2013-07-13 13:49:00,
2013-07-13 09:54:00,79.5,59.8,30.21,ENE,68,4.5,5.8,51,0.00,CLR,OVC,0.00,700.0,WeatherDisplay:10.37,2013-07-13 13:54:00,
2013-07-13 09:59:00,79.3,59.6,30.21,ENE,68,4.3,4.6,51,0.00,CLR,OVC,0.00,800.0,WeatherDisplay:10.37,2013-07-13 13:59:00,
2013-07-13 10:04:00,79.2,59.5,30.21,NE,45,5.4,8.1,51,0.00,CLR,OVC,0.00,800.0,WeatherDisplay:10.37,2013-07-13 14:04:00,
2013-07-13 10:09:00,79.3,59.1,30.21,NE,45,6.0,7.6,50,0.00,CLR,OVC,0.00,800.0,WeatherDisplay:10.37,2013-07-13 14:09:00,
2013-07-13 10:14:00,79.3,57.9,30.21,ENE,68,6.4,9.2,48,0.00,CLR,OVC,0.00,800.0,WeatherDisplay:10.37,2013-07-13 14:14:00,
2013-07-13 10:19:00,79.3,57.9,30.21,ENE,68,5.4,8.7,48,0.00,CLR,OVC,0.00,900.0,WeatherDisplay:10.37,2013-07-13 14:19:00,
2013-07-13 10:24:00,79.5,58.1,30.21,ENE,68,3.3,4.6,48,0.00,CLR,OVC,0.00,900.0,WeatherDisplay:10.37,2013-07-13 14:24:00,
2013-07-13 10:29:00,79.9,58.4,30.21,NE,45,3.8,6.9,48,0.00,CLR,OVC,0.00,900.0,WeatherDisplay:10.37,2013-07-13 14:29:00,
2013-07-13 10:34:00,79.9,57.8,30.21,East,90,4.0,6.9,47,0.00,CLR,OVC,0.00,1000.0,WeatherDisplay:10.37,2013-07-13 14:34:00,
2013-07-13 10:39:00,79.9,57.8,30.21,ESE,112,4.3,5.8,47,0.00,CLR,OVC,0.00,1000.0,WeatherDisplay:10.37,2013-07-13 14:39:00,
2013-07-13 10:44:00,80.2,57.6,30.21,East,90,5.4,5.8,46,0.00,CLR,OVC,0.00,1000.0,WeatherDisplay:10.37,2013-07-13 14:44:00,
2013-07-13 10:49:00,80.2,57.0,30.21,ENE,68,6.4,9.2,45,0.00,CLR,OVC,0.00,1000.0,WeatherDisplay:10.37,2013-07-13 14:49:00,
2013-07-13 10:54:00,80.4,57.7,30.21,NNE,22,4.3,5.9,46,0.00,CLR,OVC,0.00,1100.0,WeatherDisplay:10.37,2013-07-13 14:54:00,
2013-07-13 10:59:00,80.6,57.3,30.21,East,90,3.8,6.9,45,0.00,CLR,OVC,0.00,1100.0,WeatherDisplay:10.37,2013-07-13 14:59:00,
2013-07-13 11:04:00,80.6,56.7,30.21,NE,45,9.0,12.7,44,0.00,CLR,OVC,0.00,1200.0,WeatherDisplay:10.37,2013-07-13 15:04:00,
2013-07-13 11:09:00,80.1,56.2,30.21,East,90,4.0,5.8,44,0.00,CLR,OVC,0.00,1200.0,WeatherDisplay:10.37,2013-07-13 15:09:00,
2013-07-13 11:14:00,80.1,56.2,30.21,NE,45,4.7,6.9,44,0.00,CLR,OVC,0.00,1200.0,WeatherDisplay:10.37,2013-07-13 15:14:00,
2013-07-13 11:19:00,80.2,56.3,30.24,NE,45,3.8,6.4,44,0.00,CLR,OVC,0.00,1300.0,WeatherDisplay:10.37,2013-07-13 15:19:00,
2013-07-13 11:24:00,80.4,56.5,30.24,NE,45,4.0,10.0,44,0.00,CLR,OVC,0.00,1300.0,WeatherDisplay:10.37,2013-07-13 15:24:00,
2013-07-13 11:29:00,80.2,55.7,30.24,East,90,6.2,9.2,43,0.00,CLR,OVC,0.00,1300.0,WeatherDisplay:10.37,2013-07-13 15:29:00,
2013-07-13 11:34:00,80.6,56.0,30.21,East,90,3.3,5.6,43,0.00,CLR,OVC,0.00,1300.0,WeatherDisplay:10.37,2013-07-13 15:34:00,
2013-07-13 11:39:00,80.8,56.2,30.21,ENE,68,4.7,6.9,43,0.00,CLR,OVC,0.00,1300.0,WeatherDisplay:10.37,2013-07-13 15:39:00,
2013-07-13 11:44:00,80.4,55.9,30.21,East,90,4.0,8.5,43,0.00,CLR,OVC,0.00,1400.0,WeatherDisplay:10.37,2013-07-13 15:44:00,
2013-07-13 11:49:00,80.4,55.2,30.21,ESE,112,5.9,8.1,42,0.00,CLR,OVC,0.00,1400.0,WeatherDisplay:10.37,2013-07-13 15:49:00,
2013-07-13 11:54:00,80.8,55.5,30.21,East,90,4.3,6.2,42,0.00,CLR,OVC,0.00,1400.0,WeatherDisplay:10.37,2013-07-13 15:54:00,
2013-07-13 11:59:00,81.0,55.7,30.21,East,90,7.8,8.1,42,0.00,CLR,OVC,0.00,1400.0,WeatherDisplay:10.37,2013-07-13 15:59:00,
2013-07-13 12:04:00,81.1,55.2,30.21,ESE,112,6.2,8.1,41,0.00,CLR,OVC,0.00,1500.0,WeatherDisplay:10.37,2013-07-13 16:04:00,
2013-07-13 12:09:00,81.1,55.2,30.21,NE,45,4.3,7.8,41,0.00,CLR,OVC,0.00,1500.0,WeatherDisplay:10.37,2013-07-13 16:09:00,
2013-07-13 12:14:00,81.0,55.0,30.21,ESE,112,3.8,3.8,41,0.00,CLR,OVC,0.00,1500.0,WeatherDisplay:10.37,2013-07-13 16:14:00,
2013-07-13 12:19:00,81.3,55.4,30.24,ESE,112,1.6,4.0,41,0.00,CLR,OVC,0.00,1500.0,WeatherDisplay:10.37,2013-07-13 16:19:00,
2013-07-13 12:24:00,81.7,55.7,30.24,ENE,68,4.9,5.8,41,0.00,CLR,OVC,0.00,1500.0,WeatherDisplay:10.37,2013-07-13 16:24:00,
2013-07-13 12:29:00,81.5,55.5,30.24,NE,45,4.5,7.8,41,0.00,CLR,OVC,0.00,1600.0,WeatherDisplay:10.37,2013-07-13 16:29:00,
2013-07-13 12:34:00,81.3,55.4,30.21,ESE,112,6.0,9.2,41,0.00,CLR,OVC,0.00,1600.0,WeatherDisplay:10.37,2013-07-13 16:34:00,
2013-07-13 12:39:00,81.7,55.7,30.21,East,90,3.6,4.6,41,0.00,CLR,OVC,0.00,1600.0,WeatherDisplay:10.37,2013-07-13 16:39:00,
2013-07-13 12:44:00,82.0,56.0,30.21,ENE,68,6.9,9.2,41,0.00,CLR,OVC,0.00,1600.0,WeatherDisplay:10.37,2013-07-13 16:44:00,
2013-07-13 12:49:00,81.5,55.5,30.21,East,90,3.1,6.9,41,0.00,CLR,OVC,0.00,1600.0,WeatherDisplay:10.37,2013-07-13 16:49:00,
2013-07-13 12:54:00,81.9,55.9,30.21,SE,135,2.6,4.6,41,0.00,CLR,OVC,0.00,1600.0,WeatherDisplay:10.37,2013-07-13 16:54:00,
2013-07-13 12:59:00,81.9,55.9,30.21,SSE,158,4.3,5.8,41,0.00,CLR,OVC,0.00,1600.0,WeatherDisplay:10.37,2013-07-13 16:59:00,
2013-07-13 13:04:00,82.0,56.0,30.24,East,90,5.9,9.2,41,0.00,CLR,OVC,0.00,1600.0,WeatherDisplay:10.37,2013-07-13 17:04:00,
2013-07-13 13:09:00,82.2,56.2,30.24,SSE,158,6.2,6.9,41,0.00,CLR,OVC,0.00,1600.0,WeatherDisplay:10.37,2013-07-13 17:09:00,
2013-07-13 13:14:00,82.4,55.7,30.24,SSE,158,5.4,9.4,40,0.00,CLR,OVC,0.00,1600.0,WeatherDisplay:10.37,2013-07-13 17:14:00,
2013-07-13 13:19:00,82.6,55.8,30.24,ESE,112,4.0,11.5,40,0.00,CLR,OVC,0.00,1600.0,WeatherDisplay:10.37,2013-07-13 17:19:00,
2013-07-13 13:24:00,82.4,55.7,30.24,East,90,3.6,5.8,40,0.00,CLR,OVC,0.00,1600.0,WeatherDisplay:10.37,2013-07-13 17:24:00,
2013-07-13 13:29:00,82.6,55.8,30.24,ESE,112,9.0,11.5,40,0.00,CLR,OVC,0.00,1600.0,WeatherDisplay:10.37,2013-07-13 17:29:00,
2013-07-13 13:34:00,82.8,56.0,30.21,SSE,158,7.1,9.2,40,0.00,CLR,OVC,0.00,1600.0,WeatherDisplay:10.37,2013-07-13 17:34:00,
2013-07-13 13:39:00,82.8,56.0,30.21,ESE,112,6.0,9.2,40,0.00,CLR,OVC,0.00,1600.0,WeatherDisplay:10.37,2013-07-13 17:39:00,
2013-07-13 13:44:00,82.9,56.1,30.21,SSE,158,4.0,6.9,40,0.00,CLR,OVC,0.00,1600.0,WeatherDisplay:10.37,2013-07-13 17:44:00,
2013-07-13 13:49:00,82.9,56.1,30.21,ESE,112,3.3,3.5,40,0.00,CLR,OVC,0.00,1600.0,WeatherDisplay:10.37,2013-07-13 17:49:00,
2013-07-13 13:54:00,83.1,56.3,30.21,East,90,4.7,5.8,40,0.00,CLR,OVC,0.00,1600.0,WeatherDisplay:10.37,2013-07-13 17:54:00,
2013-07-13 13:59:00,83.1,56.3,30.21,SSE,158,3.3,4.6,40,0.00,CLR,OVC,0.00,1600.0,WeatherDisplay:10.37,2013-07-13 17:59:00,
2013-07-13 14:04:00,83.1,56.3,30.24,ENE,68,1.4,3.5,40,0.00,CLR,OVC,0.00,0.0,WeatherDisplay:10.37,2013-07-13 18:04:00,
2013-07-13 14:09:00,83.1,56.3,30.24,ENE,68,4.0,5.8,40,0.00,CLR,OVC,0.00,0.0,WeatherDisplay:10.37,2013-07-13 18:09:00,
2013-07-13 14:14:00,82.9,56.1,30.24,East,90,4.7,5.8,40,0.00,CLR,OVC,0.00,1600.0,WeatherDisplay:10.37,2013-07-13 18:14:00,
2013-07-13 14:19:00,83.3,56.5,30.24,ESE,112,1.6,4.6,40,0.00,CLR,OVC,0.00,1600.0,WeatherDisplay:10.37,2013-07-13 18:19:00,
2013-07-13 14:24:00,83.1,56.3,30.24,East,90,3.1,5.8,40,0.00,CLR,OVC,0.00,500.0,WeatherDisplay:10.37,2013-07-13 18:24:00,
2013-07-13 14:29:00,83.3,56.5,30.24,NE,45,4.9,5.8,40,0.00,CLR,OVC,0.00,1600.0,WeatherDisplay:10.37,2013-07-13 18:29:00,
2013-07-13 14:34:00,83.3,56.5,30.21,ESE,112,2.0,2.4,40,0.00,CLR,OVC,0.00,1600.0,WeatherDisplay:10.37,2013-07-13 18:34:00,
2013-07-13 14:39:00,83.5,57.3,30.21,South,180,1.4,3.5,41,0.00,CLR,OVC,0.00,1500.0,WeatherDisplay:10.37,2013-07-13 18:39:00,
2013-07-13 14:44:00,83.5,56.6,30.21,NE,45,3.3,5.8,40,0.00,CLR,OVC,0.00,1500.0,WeatherDisplay:10.37,2013-07-13 18:44:00,
2013-07-13 14:49:00,83.5,56.6,30.21,ESE,112,1.4,6.4,40,0.00,CLR,OVC,0.00,1500.0,WeatherDisplay:10.37,2013-07-13 18:49:00,
2013-07-13 14:54:00,83.7,57.5,30.21,NE,45,4.5,7.8,41,0.00,CLR,OVC,0.00,1500.0,WeatherDisplay:10.37,2013-07-13 18:54:00,
2013-07-13 14:59:00,83.7,56.8,30.21,East,90,3.1,4.6,40,0.00,CLR,OVC,0.00,800.0,WeatherDisplay:10.37,2013-07-13 18:59:00,
2013-07-13 15:04:00,83.5,56.6,30.21,NNE,22,4.9,6.9,40,0.00,CLR,OVC,0.00,1400.0,WeatherDisplay:10.37,2013-07-13 19:04:00,
2013-07-13 15:09:00,83.1,56.3,30.21,ENE,68,4.0,6.9,40,0.00,CLR,OVC,0.00,1400.0,WeatherDisplay:10.37,2013-07-13 19:09:00,
2013-07-13 15:14:00,83.1,56.3,30.21,ESE,112,5.9,8.1,40,0.00,CLR,OVC,0.00,1400.0,WeatherDisplay:10.37,2013-07-13 19:14:00,
2013-07-13 15:19:00,83.3,57.1,30.21,SSE,158,5.9,11.5,41,0.00,CLR,OVC,0.00,1400.0,WeatherDisplay:10.37,2013-07-13 19:19:00,
2013-07-13 15:24:00,83.3,57.1,30.21,SSE,158,4.5,5.8,41,0.00,CLR,OVC,0.00,1400.0,WeatherDisplay:10.37,2013-07-13 19:24:00,
2013-07-13 15:29:00,83.3,56.5,30.21,SSE,158,1.4,2.3,40,0.00,CLR,OVC,0.00,1300.0,WeatherDisplay:10.37,2013-07-13 19:29:00,
2013-07-13 15:34:00,83.3,57.1,30.21,SSE,158,4.9,8.1,41,0.00,CLR,OVC,0.00,1300.0,WeatherDisplay:10.37,2013-07-13 19:34:00,
2013-07-13 15:39:00,83.3,57.1,30.21,ESE,112,6.0,8.1,41,0.00,CLR,OVC,0.00,1300.0,WeatherDisplay:10.37,2013-07-13 19:39:00,
2013-07-13 15:44:00,83.3,57.1,30.21,SSE,158,5.6,8.1,41,0.00,CLR,OVC,0.00,1200.0,WeatherDisplay:10.37,2013-07-13 19:44:00,
2013-07-13 15:49:00,83.3,57.1,30.21,ENE,68,5.6,5.8,41,0.00,CLR,OVC,0.00,1200.0,WeatherDisplay:10.37,2013-07-13 19:49:00,
2013-07-13 15:54:00,83.1,57.0,30.21,ESE,112,4.5,5.8,41,0.00,CLR,OVC,0.00,1200.0,WeatherDisplay:10.37,2013-07-13 19:54:00,
2013-07-13 15:59:00,83.1,57.0,30.21,East,90,5.4,8.1,41,0.00,CLR,OVC,0.00,1200.0,WeatherDisplay:10.37,2013-07-13 19:59:00,
2013-07-13 16:04:00,83.1,57.0,30.21,SE,135,5.9,9.2,41,0.00,CLR,OVC,0.00,1100.0,WeatherDisplay:10.37,2013-07-13 20:04:00,
2013-07-13 16:09:00,83.1,57.0,30.21,SSE,158,4.5,8.1,41,0.00,CLR,OVC,0.00,1100.0,WeatherDisplay:10.37,2013-07-13 20:09:00,
2013-07-13 16:14:00,83.1,57.0,30.21,ENE,68,1.6,5.4,41,0.00,CLR,OVC,0.00,1100.0,WeatherDisplay:10.37,2013-07-13 20:14:00,
2013-07-13 16:19:00,83.1,57.0,30.21,ENE,68,6.2,8.1,41,0.00,CLR,OVC,0.00,1000.0,WeatherDisplay:10.37,2013-07-13 20:19:00,
2013-07-13 16:24:00,83.1,57.0,30.21,SE,135,6.0,8.1,41,0.00,CLR,OVC,0.00,1000.0,WeatherDisplay:10.37,2013-07-13 20:24:00,
2013-07-13 16:29:00,83.1,57.6,30.21,East,90,6.9,8.1,42,0.00,CLR,OVC,0.00,1000.0,WeatherDisplay:10.37,2013-07-13 20:29:00,
2013-07-13 16:34:00,83.1,57.0,30.21,SE,135,2.9,7.4,41,0.00,CLR,OVC,0.00,800.0,WeatherDisplay:10.37,2013-07-13 20:34:00,
2013-07-13 16:39:00,83.1,57.0,30.21,ENE,68,5.9,8.1,41,0.00,CLR,OVC,0.00,400.0,WeatherDisplay:10.37,2013-07-13 20:39:00,
2013-07-13 16:44:00,82.8,56.7,30.21,ESE,112,3.1,4.6,41,0.00,CLR,OVC,0.00,300.0,WeatherDisplay:10.37,2013-07-13 20:44:00,
2013-07-13 16:49:00,82.8,56.7,30.21,ENE,68,1.4,2.6,41,0.00,CLR,OVC,0.00,800.0,WeatherDisplay:10.37,2013-07-13 20:49:00,
2013-07-13 16:54:00,82.8,56.7,30.21,ESE,112,4.3,5.8,41,0.00,CLR,OVC,0.00,800.0,WeatherDisplay:10.37,2013-07-13 20:54:00,
2013-07-13 16:59:00,82.9,56.8,30.21,SE,135,4.5,5.8,41,0.00,CLR,OVC,0.00,800.0,WeatherDisplay:10.37,2013-07-13 20:59:00,
2013-07-13 17:04:00,82.9,56.8,30.21,ESE,112,2.6,6.9,41,0.00,CLR,OVC,0.00,700.0,WeatherDisplay:10.37,2013-07-13 21:04:00,
2013-07-13 17:09:00,83.3,57.1,30.21,SSE,158,3.8,6.9,41,0.00,CLR,OVC,0.00,800.0,WeatherDisplay:10.37,2013-07-13 21:09:00,
2013-07-13 17:14:00,83.5,58.0,30.21,ESE,112,4.9,8.1,42,0.00,CLR,OVC,0.00,700.0,WeatherDisplay:10.37,2013-07-13 21:14:00,
2013-07-13 17:19:00,83.3,57.1,30.21,NE,45,4.5,5.8,41,0.00,CLR,OVC,0.00,600.0,WeatherDisplay:10.37,2013-07-13 21:19:00,
2013-07-13 17:24:00,82.9,56.8,30.21,NE,45,4.5,5.8,41,0.00,CLR,OVC,0.00,300.0,WeatherDisplay:10.37,2013-07-13 21:24:00,
2013-07-13 17:29:00,82.8,56.7,30.21,SE,135,4.3,5.8,41,0.00,CLR,OVC,0.00,300.0,WeatherDisplay:10.37,2013-07-13 21:29:00,
2013-07-13 17:34:00,82.9,57.5,30.21,ESE,112,1.6,3.5,42,0.00,CLR,OVC,0.00,500.0,WeatherDisplay:10.37,2013-07-13 21:34:00,
2013-07-13 17:39:00,83.3,57.8,30.21,ESE,112,3.8,4.6,42,0.00,CLR,OVC,0.00,400.0,WeatherDisplay:10.37,2013-07-13 21:39:00,
2013-07-13 17:44:00,83.5,58.0,30.21,ENE,68,6.0,6.9,42,0.00,CLR,OVC,0.00,300.0,WeatherDisplay:10.37,2013-07-13 21:44:00,
2013-07-13 17:49:00,83.3,57.8,30.21,ESE,112,3.1,5.4,42,0.00,CLR,OVC,0.00,300.0,WeatherDisplay:10.37,2013-07-13 21:49:00,
2013-07-13 17:54:00,83.3,57.8,30.21,SE,135,6.0,8.1,42,0.00,CLR,OVC,0.00,300.0,WeatherDisplay:10.37,2013-07-13 21:54:00,
2013-07-13 17:59:00,83.3,57.8,30.21,SE,135,4.7,8.1,42,0.00,CLR,OVC,0.00,200.0,WeatherDisplay:10.37,2013-07-13 21:59:00,
2013-07-13 18:04:00,82.9,57.5,30.21,SE,135,3.6,5.8,42,0.00,CLR,OVC,0.00,300.0,WeatherDisplay:10.37,2013-07-13 22:04:00,
2013-07-13 18:09:00,82.6,57.8,30.21,SSE,158,3.1,4.6,43,0.00,CLR,OVC,0.00,200.0,WeatherDisplay:10.37,2013-07-13 22:09:00,
2013-07-13 18:14:00,82.6,57.8,30.21,East,90,3.6,5.8,43,0.00,CLR,OVC,0.00,300.0,WeatherDisplay:10.37,2013-07-13 22:14:00,
2013-07-13 18:19:00,82.6,57.8,30.21,East,90,4.5,8.1,43,0.00,CLR,OVC,0.00,200.0,WeatherDisplay:10.37,2013-07-13 22:19:00,
2013-07-13 18:24:00,82.4,57.0,30.21,East,90,4.7,5.8,42,0.00,CLR,OVC,0.00,200.0,WeatherDisplay:10.37,2013-07-13 22:24:00,
2013-07-13 18:29:00,82.0,57.3,30.21,ESE,112,4.9,6.9,43,0.00,CLR,OVC,0.00,200.0,WeatherDisplay:10.37,2013-07-13 22:29:00,
2013-07-13 18:34:00,82.0,57.3,30.21,ESE,112,3.6,5.8,43,0.00,CLR,OVC,0.00,200.0,WeatherDisplay:10.37,2013-07-13 22:34:00,
2013-07-13 18:39:00,82.0,58.0,30.21,ESE,112,4.7,6.9,44,0.00,CLR,OVC,0.00,200.0,WeatherDisplay:10.37,2013-07-13 22:39:00,
2013-07-13 18:44:00,82.0,58.6,30.21,SE,135,4.0,5.8,45,0.00,CLR,OVC,0.00,200.0,WeatherDisplay:10.37,2013-07-13 22:44:00,
2013-07-13 18:49:00,81.9,58.4,30.21,SE,135,6.0,8.1,45,0.00,CLR,OVC,0.00,100.0,WeatherDisplay:10.37,2013-07-13 22:49:00,
2013-07-13 18:54:00,81.7,58.3,30.21,SE,135,7.1,10.4,45,0.00,CLR,OVC,0.00,100.0,WeatherDisplay:10.37,2013-07-13 22:54:00,
2013-07-13 18:59:00,81.5,58.1,30.21,ESE,112,2.2,3.8,45,0.00,CLR,OVC,0.00,100.0,WeatherDisplay:10.37,2013-07-13 22:59:00,
2013-07-13 19:04:00,81.7,58.3,30.21,ESE,112,2.9,5.8,45,0.00,FEW,OVC,0.00,100.0,WeatherDisplay:10.37,2013-07-13 23:04:00,
2013-07-13 19:09:00,81.5,58.1,30.21,ESE,112,4.5,4.6,45,0.00,FEW,OVC,0.00,100.0,WeatherDisplay:10.37,2013-07-13 23:09:00,
2013-07-13 19:14:00,81.5,58.1,30.21,SE,135,3.3,8.5,45,0.00,FEW,OVC,0.00,100.0,WeatherDisplay:10.37,2013-07-13 23:14:00,
2013-07-13 19:19:00,81.3,57.9,30.21,SE,135,4.5,5.9,45,0.00,FEW,OVC,0.00,100.0,WeatherDisplay:10.37,2013-07-13 23:19:00,
2013-07-13 19:24:00,81.3,57.9,30.21,ESE,112,3.3,4.6,45,0.00,FEW,OVC,0.00,100.0,WeatherDisplay:10.37,2013-07-13 23:24:00,
2013-07-13 19:29:00,81.3,57.9,30.21,SSE,158,4.0,5.8,45,0.00,FEW,OVC,0.00,100.0,WeatherDisplay:10.37,2013-07-13 23:29:00,
2013-07-13 19:34:00,81.1,57.8,30.21,ESE,112,3.3,4.6,45,0.00,FEW,OVC,0.00,100.0,WeatherDisplay:10.37,2013-07-13 23:34:00,
2013-07-13 19:39:00,81.1,57.8,30.21,SSE,158,4.5,5.8,45,0.00,FEW,OVC,0.00,100.0,WeatherDisplay:10.37,2013-07-13 23:39:00,
2013-07-13 19:44:00,81.0,57.6,30.21,SE,135,5.6,6.9,45,0.00,FEW,OVC,0.00,0.0,WeatherDisplay:10.37,2013-07-13 23:44:00,
2013-07-13 19:49:00,80.8,57.5,30.21,SSE,158,3.1,3.5,45,0.00,FEW,OVC,0.00,0.0,WeatherDisplay:10.37,2013-07-13 23:49:00,
2013-07-13 19:54:00,80.6,57.3,30.21,SSE,158,2.9,6.0,45,0.00,FEW,OVC,0.00,0.0,WeatherDisplay:10.37,2013-07-13 23:54:00,
2013-07-13 19:59:00,80.4,57.7,30.21,SE,135,3.8,5.8,46,0.00,FEW,OVC,0.00,0.0,WeatherDisplay:10.37,2013-07-13 23:59:00,
2013-07-13 20:04:00,80.1,58.0,30.21,ESE,112,2.2,3.6,47,0.00,BKN,OVC,0.00,0.0,WeatherDisplay:10.37,2013-07-14 00:04:00,
2013-07-13 20:09:00,79.9,57.8,30.21,SSE,158,2.6,3.5,47,0.00,BKN,OVC,0.00,0.0,WeatherDisplay:10.37,2013-07-14 00:09:00,
2013-07-13 20:14:00,79.9,57.8,30.21,SE,135,1.4,5.8,47,0.00,BKN,OVC,0.00,0.0,WeatherDisplay:10.37,2013-07-14 00:14:00,
2013-07-13 20:19:00,79.7,58.3,30.21,SSE,158,2.2,3.8,48,0.00,BKN,OVC,0.00,0.0,WeatherDisplay:10.37,2013-07-14 00:19:00,
2013-07-13 20:24:00,79.3,57.9,30.21,ESE,112,3.1,5.8,48,0.00,BKN,OVC,0.00,0.0,WeatherDisplay:10.37,2013-07-14 00:24:00,
2013-07-13 20:29:00,79.3,57.9,30.21,ESE,112,2.6,4.7,48,0.00,BKN,OVC,0.00,0.0,WeatherDisplay:10.37,2013-07-14 00:29:00,
2013-07-13 20:34:00,79.0,58.2,30.21,SSE,158,2.6,5.8,49,0.00,BKN,OVC,0.00,0.0,WeatherDisplay:10.37,2013-07-14 00:34:00,
2013-07-13 20:39:00,78.8,58.0,30.21,ESE,112,2.2,4.6,49,0.00,BKN,OVC,0.00,0.0,WeatherDisplay:10.37,2013-07-14 00:39:00,
2013-07-13 20:44:00,78.8,58.6,30.21,ESE,112,2.4,3.5,50,0.00,BKN,OVC,0.00,0.0,WeatherDisplay:10.37,2013-07-14 00:44:00,
2013-07-13 20:49:00,78.6,59.0,30.21,ESE,112,2.0,3.5,51,0.00,BKN,OVC,0.00,0.0,WeatherDisplay:10.37,2013-07-14 00:49:00,
2013-07-13 20:54:00,78.3,58.6,30.21,ESE,112,2.6,4.0,51,0.00,BKN,OVC,0.00,0.0,WeatherDisplay:10.37,2013-07-14 00:54:00,
2013-07-13 20:59:00,78.1,58.5,30.21,SE,135,2.6,4.6,51,0.00,BKN,OVC,0.00,0.0,WeatherDisplay:10.37,2013-07-14 00:59:00,
2013-07-13 21:04:00,77.9,58.3,30.21,SE,135,2.4,3.5,51,0.00,CLR,OVC,0.00,0.0,WeatherDisplay:10.37,2013-07-14 01:04:00,
2013-07-13 21:09:00,77.7,58.7,30.21,SE,135,2.2,3.1,52,0.00,CLR,OVC,0.00,0.0,WeatherDisplay:10.37,2013-07-14 01:09:00,
2013-07-13 21:14:00,77.4,58.4,30.21,ESE,112,2.4,3.1,52,0.00,CLR,OVC,0.00,0.0,WeatherDisplay:10.37,2013-07-14 01:14:00,
2013-07-13 21:19:00,77.2,58.2,30.21,SE,135,2.2,3.5,52,0.00,CLR,OVC,0.00,0.0,WeatherDisplay:10.37,2013-07-14 01:19:00,
2013-07-13 21:24:00,77.0,58.0,30.21,SE,135,1.4,2.6,52,0.00,CLR,OVC,0.00,0.0,WeatherDisplay:10.37,2013-07-14 01:24:00,
2013-07-13 21:29:00,76.8,58.4,30.21,SE,135,2.2,3.5,53,0.00,CLR,OVC,0.00,0.0,WeatherDisplay:10.37,2013-07-14 01:29:00,
2013-07-13 21:34:00,76.6,58.2,30.21,SSE,158,3.3,4.6,53,0.00,CLR,OVC,0.00,0.0,WeatherDisplay:10.37,2013-07-14 01:34:00,
2013-07-13 21:39:00,76.5,58.1,30.21,ESE,112,2.6,3.5,53,0.00,CLR,OVC,0.00,0.0,WeatherDisplay:10.37,2013-07-14 01:39:00,
2013-07-13 21:44:00,76.3,57.9,30.21,SE,135,3.1,3.5,53,0.00,CLR,OVC,0.00,0.0,WeatherDisplay:10.37,2013-07-14 01:44:00,
2013-07-13 21:49:00,75.9,57.6,30.24,SE,135,2.2,3.5,53,0.00,CLR,OVC,0.00,0.0,WeatherDisplay:10.37,2013-07-14 01:49:00,
2013-07-13 21:54:00,75.7,57.4,30.24,SE,135,2.9,3.5,53,0.00,CLR,OVC,0.00,0.0,WeatherDisplay:10.37,2013-07-14 01:54:00,
2013-07-13 21:59:00,75.6,57.7,30.24,ESE,112,2.2,4.6,54,0.00,CLR,OVC,0.00,0.0,WeatherDisplay:10.37,2013-07-14 01:59:00,
2013-07-13 22:04:00,75.4,57.6,30.24,SE,135,2.0,2.3,54,0.00,CLR,OVC,0.00,0.0,WeatherDisplay:10.37,2013-07-14 02:04:00,
2013-07-13 22:09:00,75.2,57.4,30.24,ESE,112,2.9,4.6,54,0.00,CLR,OVC,0.00,0.0,WeatherDisplay:10.37,2013-07-14 02:09:00,
2013-07-13 22:14:00,75.0,57.2,30.24,SSE,158,2.9,3.5,54,0.00,CLR,OVC,0.00,0.0,WeatherDisplay:10.37,2013-07-14 02:14:00,
2013-07-13 22:19:00,74.8,57.6,30.24,SE,135,2.6,3.5,55,0.00,CLR,OVC,0.00,0.0,WeatherDisplay:10.37,2013-07-14 02:19:00,
2013-07-13 22:24:00,74.7,57.4,30.24,ESE,112,2.2,3.5,55,0.00,CLR,OVC,0.00,0.0,WeatherDisplay:10.37,2013-07-14 02:24:00,
2013-07-13 22:29:00,74.5,57.3,30.24,East,90,2.0,3.5,55,0.00,CLR,OVC,0.00,0.0,WeatherDisplay:10.37,2013-07-14 02:29:00,
2013-07-13 22:34:00,74.3,57.6,30.24,East,90,2.2,3.5,56,0.00,CLR,OVC,0.00,0.0,WeatherDisplay:10.37,2013-07-14 02:34:00,
2013-07-13 22:39:00,74.3,57.6,30.24,ESE,112,1.2,3.5,56,0.00,CLR,OVC,0.00,0.0,WeatherDisplay:10.37,2013-07-14 02:39:00,
2013-07-13 22:44:00,74.1,57.4,30.24,SSE,158,1.6,2.3,56,0.00,CLR,OVC,0.00,0.0,WeatherDisplay:10.37,2013-07-14 02:44:00,
2013-07-13 22:49:00,73.9,57.7,30.24,ESE,112,2.2,3.6,57,0.00,CLR,OVC,0.00,0.0,WeatherDisplay:10.37,2013-07-14 02:49:00,
2013-07-13 22:54:00,73.8,57.6,30.24,ESE,112,2.0,3.1,57,0.00,CLR,OVC,0.00,0.0,WeatherDisplay:10.37,2013-07-14 02:54:00,
2013-07-13 22:59:00,73.8,57.6,30.24,SE,135,1.4,2.3,57,0.00,CLR,OVC,0.00,0.0,WeatherDisplay:10.37,2013-07-14 02:59:00,
2013-07-13 23:04:00,73.6,57.9,30.24,ESE,112,2.0,2.4,58,0.00,CLR,OVC,0.00,0.0,WeatherDisplay:10.37,2013-07-14 03:04:00,
2013-07-13 23:09:00,73.4,57.7,30.24,ESE,112,2.2,2.4,58,0.00,CLR,OVC,0.00,0.0,WeatherDisplay:10.37,2013-07-14 03:09:00,
2013-07-13 23:14:00,73.4,57.7,30.24,ESE,112,2.2,2.4,58,0.00,CLR,OVC,0.00,0.0,WeatherDisplay:10.37,2013-07-14 03:14:00,
2013-07-13 23:19:00,73.2,58.0,30.24,ENE,68,2.0,2.3,59,0.00,CLR,OVC,0.00,0.0,WeatherDisplay:10.37,2013-07-14 03:19:00,
2013-07-13 23:24:00,73.0,57.9,30.24,ENE,68,0.9,1.2,59,0.00,CLR,OVC,0.00,0.0,WeatherDisplay:10.37,2013-07-14 03:24:00,
2013-07-13 23:29:00,73.0,58.3,30.24,ENE,68,0.0,0.0,60,0.00,CLR,OVC,0.00,0.0,WeatherDisplay:10.37,2013-07-14 03:29:00,
2013-07-13 23:34:00,72.9,58.2,30.24,ENE,68,0.0,0.0,60,0.00,CLR,OVC,0.00,0.0,WeatherDisplay:10.37,2013-07-14 03:34:00,
2013-07-13 23:39:00,72.5,58.3,30.24,ENE,68,0.0,0.0,61,0.00,CLR,OVC,0.00,0.0,WeatherDisplay:10.37,2013-07-14 03:39:00,
2013-07-13 23:44:00,72.3,58.1,30.24,ENE,68,0.0,0.0,61,0.00,CLR,OVC,0.00,0.0,WeatherDisplay:10.37,2013-07-14 03:44:00,
2013-07-13 23:49:00,72.3,58.6,30.24,ESE,112,0.0,0.0,62,0.00,CLR,OVC,0.00,0.0,WeatherDisplay:10.37,2013-07-14 03:49:00,
2013-07-13 23:54:00,72.3,58.6,30.24,East,90,0.0,0.0,62,0.00,CLR,OVC,0.00,0.0,WeatherDisplay:10.37,2013-07-14 03:54:00,
2013-07-13 23:59:00,72.1,58.4,30.24,ESE,112,0.0,1.2,62,0.00,CLR,OVC,0.00,0.0,WeatherDisplay:10.37,2013-07-14 03:59:00,